Time;durP1;ratioP1;P1;durP2;ratioP2;P2;SDS_P1;SDS_P2;PMS_P1;PMS_P2;Temp;Humidity;BMP_temperature;BMP_pressure;BME280_temperature;BME280_humidity;BME280_pressure;Samples;Min_cycle;Max_cycle;Signal;HPM_P1;HPM_P2
2022/01/04 00:00:24;;;;;;;6.73;6.03;;;13.10;99.90;;;;;;5012582;28;20625;-59
2022/01/04 00:02:52;;;;;;;2.97;1.47;;;13.10;99.90;;;;;;5012248;28;20207;-60
2022/01/04 00:05:19;;;;;;;2.90;1.00;;;13.20;99.90;;;;;;5012326;28;20350;-60
2022/01/04 00:07:46;;;;;;;2.40;0.93;;;13.20;99.90;;;;;;5012179;28;20679;-60
2022/01/04 00:10:19;;;;;;;2.10;0.93;;;13.20;99.90;;;;;;5012609;28;20213;-60
2022/01/04 00:15:30;;;;;;;2.83;0.80;;;13.20;99.90;;;;;;5012769;28;20226;-61
2022/01/04 00:17:58;;;;;;;2.87;1.30;;;13.20;99.90;;;;;;5012161;28;20733;-60
2022/01/04 00:20:25;;;;;;;1.80;0.87;;;13.10;99.90;;;;;;5012543;28;20265;-60
2022/01/04 00:22:52;;;;;;;0.90;0.80;;;13.10;99.90;;;;;;5011984;28;20206;-60
2022/01/04 00:25:19;;;;;;;1.80;1.00;;;13.20;99.90;;;;;;5011916;28;20234;-61
2022/01/04 00:27:46;;;;;;;2.33;0.80;;;13.20;99.90;;;;;;5012132;28;20214;-62
2022/01/04 00:30:13;;;;;;;1.57;0.80;;;13.20;99.90;;;;;;5012061;28;20207;-60
2022/01/04 00:32:40;;;;;;;1.43;0.80;;;13.20;99.90;;;;;;5011951;28;20627;-60
2022/01/04 00:35:09;;;;;;;1.93;0.90;;;13.20;99.90;;;;;;5012222;28;20215;-60
2022/01/04 00:37:36;;;;;;;0.67;0.67;;;13.10;99.90;;;;;;5012094;28;20207;-60
2022/01/04 00:40:03;;;;;;;1.43;1.03;;;13.10;99.90;;;;;;5012111;28;20234;-60
2022/01/04 00:42:30;;;;;;;1.10;0.70;;;13.10;99.90;;;;;;5012093;28;20218;-61
2022/01/04 00:44:57;;;;;;;1.30;0.70;;;13.10;99.90;;;;;;5012116;28;20227;-60
2022/01/04 00:47:27;;;;;;;2.50;0.93;;;13.10;99.90;;;;;;5012282;28;20246;-61
2022/01/04 00:49:53;;;;;;;1.50;0.70;;;13.20;99.90;;;;;;5012094;28;20214;-60
2022/01/04 00:52:22;;;;;;;1.23;0.60;;;13.20;99.90;;;;;;5011888;28;20222;-59
2022/01/04 00:54:48;;;;;;;1.30;0.63;;;13.20;99.90;;;;;;5011868;28;20622;-60
2022/01/04 00:57:15;;;;;;;1.47;0.60;;;13.10;99.90;;;;;;5011774;28;20281;-60
2022/01/04 00:59:42;;;;;;;1.27;0.70;;;13.10;99.90;;;;;;5011834;28;20211;-60
2022/01/04 01:02:08;;;;;;;1.53;0.90;;;13.10;99.90;;;;;;5011862;28;20211;-60
2022/01/04 01:04:35;;;;;;;2.73;0.90;;;13.10;99.90;;;;;;5011807;28;20211;-60
2022/01/04 01:07:02;;;;;;;1.70;0.70;;;13.10;99.90;;;;;;5011859;28;20249;-60
2022/01/04 01:09:34;;;;;;;1.70;0.90;;;13.10;99.90;;;;;;5013860;28;20214;-60
2022/01/04 01:12:01;;;;;;;1.77;0.80;;;13.20;99.90;;;;;;5015395;28;20301;-60
2022/01/04 01:14:28;;;;;;;1.27;0.90;;;13.30;99.90;;;;;;5015326;28;20214;-61
2022/01/04 01:16:55;;;;;;;1.17;0.80;;;13.30;99.90;;;;;;5015180;28;20284;-60
2022/01/04 01:19:21;;;;;;;0.47;0.47;;;13.30;99.90;;;;;;5015030;28;20617;-60
2022/01/04 01:21:48;;;;;;;1.17;0.60;;;13.20;99.90;;;;;;5015030;28;20203;-60
2022/01/04 01:24:14;;;;;;;1.50;0.67;;;13.20;99.90;;;;;;5015556;28;20239;-60
2022/01/04 01:26:42;;;;;;;0.70;0.53;;;13.20;99.90;;;;;;5014667;28;20289;-60
2022/01/04 01:29:09;;;;;;;1.67;0.80;;;13.20;99.90;;;;;;5015127;28;20211;-59
2022/01/04 01:31:36;;;;;;;1.20;0.77;;;13.20;99.90;;;;;;5015013;28;20207;-59
2022/01/04 01:34:02;;;;;;;2.73;0.90;;;13.20;99.90;;;;;;5014796;28;20281;-59
2022/01/04 01:36:31;;;;;;;1.53;0.70;;;13.20;99.90;;;;;;5014637;28;20227;-59
2022/01/04 01:38:57;;;;;;;2.53;1.13;;;13.20;99.90;;;;;;5014844;28;20207;-61
2022/01/04 01:41:24;;;;;;;1.37;0.77;;;13.10;99.90;;;;;;5014622;28;20211;-60
2022/01/04 01:43:52;;;;;;;1.33;0.53;;;13.10;99.90;;;;;;5014708;28;20207;-61
2022/01/04 01:46:19;;;;;;;2.47;0.70;;;13.20;99.90;;;;;;5014513;28;20235;-61
2022/01/04 01:48:45;;;;;;;0.97;0.60;;;13.10;99.90;;;;;;5014855;28;20261;-60
2022/01/04 01:51:16;;;;;;;1.83;0.80;;;13.10;99.90;;;;;;5014626;28;20207;-60
2022/01/04 01:53:43;;;;;;;1.83;1.10;;;13.10;99.90;;;;;;5014425;28;20207;-61
2022/01/04 01:56:09;;;;;;;2.87;0.80;;;13.00;99.90;;;;;;5014215;28;20222;-60
2022/01/04 01:58:37;;;;;;;1.57;0.73;;;12.90;99.90;;;;;;5014525;28;20211;-61
2022/01/04 02:01:05;;;;;;;0.90;0.70;;;12.90;99.90;;;;;;5014400;28;20203;-61
2022/01/04 02:03:31;;;;;;;1.97;1.00;;;13.00;99.90;;;;;;5014086;28;20261;-60
2022/01/04 02:05:58;;;;;;;1.77;0.90;;;12.90;99.90;;;;;;5013984;28;20764;-60
2022/01/04 02:08:25;;;;;;;1.60;0.80;;;12.90;99.90;;;;;;5014130;28;20505;-60
2022/01/04 02:10:52;;;;;;;1.03;0.63;;;12.80;99.90;;;;;;5014487;28;20261;-59
2022/01/04 02:13:19;;;;;;;3.00;0.93;;;12.90;99.90;;;;;;5013997;28;20210;-60
2022/01/04 02:15:46;;;;;;;1.23;1.00;;;12.90;99.90;;;;;;5013971;28;20234;-60
2022/01/04 02:18:14;;;;;;;1.53;0.90;;;13.00;99.90;;;;;;5014203;28;20253;-60
2022/01/04 02:20:42;;;;;;;1.20;0.97;;;13.00;99.90;;;;;;5013962;28;20234;-60
2022/01/04 02:23:09;;;;;;;2.73;0.87;;;13.00;99.90;;;;;;5013790;28;20207;-59
2022/01/04 02:25:35;;;;;;;1.17;0.90;;;12.90;99.90;;;;;;5013733;28;20239;-59
2022/01/04 02:28:03;;;;;;;1.67;0.97;;;13.00;99.90;;;;;;5014072;28;20214;-59
2022/01/04 02:30:30;;;;;;;1.40;1.00;;;13.00;99.90;;;;;;5014020;28;20237;-59
2022/01/04 02:32:59;;;;;;;1.50;0.70;;;13.00;99.90;;;;;;5013807;28;20253;-59
2022/01/04 02:35:30;;;;;;;1.20;0.90;;;13.00;99.90;;;;;;5013892;28;20226;-59
2022/01/04 02:38:00;;;;;;;1.63;1.07;;;13.00;99.90;;;;;;5013934;28;20264;-60
2022/01/04 02:40:27;;;;;;;1.33;1.00;;;13.00;99.90;;;;;;5014333;28;20218;-60
2022/01/04 02:42:54;;;;;;;1.00;0.70;;;13.00;99.90;;;;;;5013612;28;20210;-61
2022/01/04 02:45:22;;;;;;;1.63;1.00;;;13.10;99.90;;;;;;5013416;28;20310;-60
2022/01/04 02:47:49;;;;;;;1.67;1.10;;;13.10;99.90;;;;;;5013491;28;20203;-61
2022/01/04 02:50:16;;;;;;;2.27;1.10;;;13.20;99.90;;;;;;5013505;28;20214;-60
2022/01/04 02:52:43;;;;;;;1.53;1.00;;;13.20;99.90;;;;;;5013084;28;20261;-60
2022/01/04 02:55:13;;;;;;;1.70;1.00;;;13.20;99.90;;;;;;5013406;28;20207;-61
2022/01/04 02:57:41;;;;;;;1.37;1.13;;;13.20;99.90;;;;;;5013264;28;20707;-60
2022/01/04 03:00:10;;;;;;;1.50;0.93;;;13.10;99.90;;;;;;5013582;28;20210;-61
2022/01/04 03:02:37;;;;;;;1.40;1.10;;;13.10;99.90;;;;;;5012889;28;20210;-61
2022/01/04 03:05:05;;;;;;;2.07;1.10;;;13.00;99.90;;;;;;5012984;28;20597;-61
2022/01/04 03:07:33;;;;;;;3.00;1.43;;;13.00;99.90;;;;;;5013327;28;20269;-61
2022/01/04 03:10:00;;;;;;;1.13;0.97;;;13.10;99.90;;;;;;5013146;28;20595;-61
2022/01/04 03:12:28;;;;;;;1.70;1.20;;;13.10;99.90;;;;;;5012867;28;20207;-61
2022/01/04 03:14:54;;;;;;;1.67;1.20;;;13.10;99.90;;;;;;5013037;28;20207;-60
2022/01/04 03:17:21;;;;;;;1.60;1.20;;;13.00;99.90;;;;;;5012748;28;20239;-60
2022/01/04 03:19:48;;;;;;;2.17;1.00;;;13.10;99.90;;;;;;5013113;28;20237;-61
2022/01/04 03:22:14;;;;;;;1.30;0.93;;;13.10;99.90;;;;;;5012950;28;20203;-61
2022/01/04 03:24:41;;;;;;;1.40;0.80;;;13.20;99.90;;;;;;5012905;28;20588;-60
2022/01/04 03:27:08;;;;;;;1.73;1.10;;;13.20;99.90;;;;;;5012767;28;20277;-60
2022/01/04 03:29:36;;;;;;;2.20;1.00;;;13.20;99.90;;;;;;5012685;28;20671;-61
2022/01/04 03:32:02;;;;;;;2.43;1.00;;;13.30;99.90;;;;;;5012261;28;20214;-60
2022/01/04 03:34:29;;;;;;;3.53;0.97;;;13.20;99.90;;;;;;5012885;28;20412;-61
2022/01/04 03:36:56;;;;;;;3.17;1.20;;;13.30;99.90;;;;;;5012777;28;20287;-60
2022/01/04 03:39:23;;;;;;;1.30;1.00;;;13.30;99.90;;;;;;5012726;28;20214;-60
2022/01/04 03:41:51;;;;;;;2.07;1.40;;;13.30;99.90;;;;;;5012512;28;20211;-61
2022/01/04 03:44:20;;;;;;;2.00;1.40;;;13.30;99.90;;;;;;5012562;28;20211;-61
2022/01/04 03:46:49;;;;;;;1.70;1.10;;;13.40;99.90;;;;;;5012550;28;20643;-61
2022/01/04 03:49:15;;;;;;;1.67;1.00;;;13.30;99.90;;;;;;5012710;28;20215;-61
2022/01/04 03:51:42;;;;;;;1.30;1.00;;;13.40;99.90;;;;;;5012601;28;20238;-61
2022/01/04 03:54:09;;;;;;;1.60;1.20;;;13.40;99.90;;;;;;5012813;28;20209;-61
2022/01/04 03:56:36;;;;;;;2.97;0.97;;;13.40;99.90;;;;;;5012265;28;20230;-61
2022/01/04 03:59:02;;;;;;;1.90;1.20;;;13.40;99.90;;;;;;5012345;28;20207;-61
2022/01/04 04:01:29;;;;;;;2.10;1.10;;;13.40;99.90;;;;;;5012335;28;20590;-61
2022/01/04 04:03:58;;;;;;;1.67;1.10;;;13.40;99.90;;;;;;5012158;28;20218;-61
2022/01/04 04:06:24;;;;;;;1.67;1.10;;;13.40;99.90;;;;;;5012205;28;20647;-61
2022/01/04 04:08:51;;;;;;;1.13;0.80;;;13.40;99.90;;;;;;5012280;28;20253;-61
2022/01/04 04:11:18;;;;;;;1.47;1.00;;;13.30;99.90;;;;;;5012234;28;20202;-60
2022/01/04 04:13:44;;;;;;;1.13;0.83;;;13.40;99.90;;;;;;5012196;28;20632;-61
2022/01/04 04:16:11;;;;;;;2.20;1.10;;;13.40;99.90;;;;;;5012232;28;20235;-61
2022/01/04 04:18:38;;;;;;;0.97;0.83;;;13.40;99.90;;;;;;5012222;28;20207;-61
2022/01/04 04:21:06;;;;;;;1.37;1.03;;;13.40;99.90;;;;;;5012162;28;20211;-61
2022/01/04 04:23:32;;;;;;;1.13;0.87;;;13.40;99.90;;;;;;5011817;28;20580;-60
2022/01/04 04:26:00;;;;;;;3.93;0.97;;;13.40;99.90;;;;;;5011776;28;20454;-61
2022/01/04 04:28:26;;;;;;;1.53;0.80;;;13.40;99.90;;;;;;5012262;28;20206;-61
2022/01/04 04:30:53;;;;;;;0.70;0.70;;;13.50;99.90;;;;;;5012165;28;20280;-61
2022/01/04 04:33:20;;;;;;;1.20;0.83;;;13.60;99.90;;;;;;5011862;28;20213;-61
2022/01/04 04:35:47;;;;;;;1.97;1.30;;;13.60;99.90;;;;;;5012009;28;20227;-61
2022/01/04 04:38:15;;;;;;;1.70;1.03;;;13.50;99.90;;;;;;5012030;28;20261;-61
2022/01/04 04:40:41;;;;;;;2.67;1.00;;;13.40;99.90;;;;;;5011867;28;20207;-61
2022/01/04 04:43:08;;;;;;;1.90;0.90;;;13.40;99.90;;;;;;5011890;28;20203;-61
2022/01/04 04:45:35;;;;;;;1.47;0.90;;;13.40;99.90;;;;;;5015563;28;20249;-61
2022/01/04 04:48:01;;;;;;;2.13;1.10;;;13.40;99.90;;;;;;5015829;28;20214;-61
2022/01/04 04:50:29;;;;;;;0.70;0.70;;;13.50;99.90;;;;;;5015747;28;20207;-61
2022/01/04 04:52:57;;;;;;;1.23;0.90;;;13.50;99.90;;;;;;5015298;28;20211;-61
2022/01/04 04:55:25;;;;;;;1.27;0.93;;;13.40;99.90;;;;;;5015815;28;20302;-60
2022/01/04 04:57:51;;;;;;;1.30;0.97;;;13.50;99.90;;;;;;5015560;28;20211;-61
2022/01/04 05:00:18;;;;;;;3.13;1.23;;;13.50;99.90;;;;;;5015678;28;20214;-61
2022/01/04 05:02:45;;;;;;;1.50;0.87;;;13.50;99.90;;;;;;5015164;28;20286;-61
2022/01/04 05:05:12;;;;;;;2.03;1.20;;;13.50;99.90;;;;;;5015239;28;20207;-61
2022/01/04 05:07:38;;;;;;;1.00;0.90;;;13.50;99.90;;;;;;5015204;28;20273;-61
2022/01/04 05:10:07;;;;;;;1.83;0.90;;;13.50;99.90;;;;;;5015441;28;20242;-61
2022/01/04 05:12:35;;;;;;;0.97;0.80;;;13.40;99.90;;;;;;5015076;28;20257;-61
2022/01/04 05:15:02;;;;;;;1.17;0.83;;;13.40;99.90;;;;;;5015213;28;20207;-61
2022/01/04 05:17:30;;;;;;;0.90;0.67;;;13.40;99.90;;;;;;5014840;28;20704;-61
2022/01/04 05:19:56;;;;;;;1.30;0.80;;;13.40;99.90;;;;;;5015037;28;20298;-61
2022/01/04 05:22:23;;;;;;;1.40;0.83;;;13.50;99.90;;;;;;5015076;28;20214;-61
2022/01/04 05:24:50;;;;;;;1.43;0.80;;;13.50;99.90;;;;;;5015238;28;20214;-61
2022/01/04 05:27:16;;;;;;;0.80;0.60;;;13.50;99.90;;;;;;5015238;28;20230;-61
2022/01/04 05:29:44;;;;;;;1.10;0.90;;;13.50;99.90;;;;;;5015030;28;20207;-61
2022/01/04 05:32:11;;;;;;;6.17;4.00;;;13.40;99.90;;;;;;5014598;28;20659;-59
2022/01/04 05:34:38;;;;;;;2.83;1.27;;;13.50;99.90;;;;;;5014728;28;20206;-61
2022/01/04 05:37:05;;;;;;;2.20;1.23;;;13.40;99.90;;;;;;5014901;28;20231;-61
2022/01/04 05:39:32;;;;;;;1.20;1.00;;;13.40;99.90;;;;;;5015004;28;20211;-60
2022/01/04 05:41:58;;;;;;;1.77;1.20;;;13.40;99.90;;;;;;5014831;28;20417;-61
2022/01/04 05:44:25;;;;;;;1.57;1.03;;;13.40;99.90;;;;;;5014937;28;20207;-61
2022/01/04 05:46:53;;;;;;;1.20;0.87;;;13.50;99.90;;;;;;5014336;28;20644;-61
2022/01/04 05:49:20;;;;;;;1.63;1.10;;;13.50;99.90;;;;;;5014489;28;20211;-61
2022/01/04 05:51:47;;;;;;;3.40;2.17;;;13.50;99.90;;;;;;5014778;28;20211;-60
2022/01/04 05:54:13;;;;;;;3.70;1.33;;;13.40;99.90;;;;;;5014088;28;20269;-60
2022/01/04 05:56:40;;;;;;;1.50;0.93;;;13.30;99.90;;;;;;5014247;28;20227;-60
2022/01/04 05:59:07;;;;;;;1.53;1.10;;;13.30;99.90;;;;;;5014439;28;20425;-61
2022/01/04 06:01:33;;;;;;;1.27;1.17;;;13.30;99.90;;;;;;5014523;28;20261;-61
2022/01/04 06:04:01;;;;;;;1.57;1.20;;;13.30;99.90;;;;;;5013989;28;20218;-61
2022/01/04 06:06:28;;;;;;;1.60;1.10;;;13.40;99.90;;;;;;5014264;28;20227;-61
2022/01/04 06:08:55;;;;;;;1.20;1.07;;;13.40;99.90;;;;;;5014341;28;20237;-61
2022/01/04 06:11:43;;;;;;;2.77;1.93;;;13.40;99.90;;;;;;5014314;28;20217;-61
2022/01/04 06:16:55;;;;;;;2.23;1.60;;;13.40;99.90;;;;;;5015219;28;20281;-61
2022/01/04 06:19:23;;;;;;;2.00;1.40;;;13.40;99.90;;;;;;5014920;28;20203;-62
2022/01/04 06:21:50;;;;;;;2.30;1.60;;;13.40;99.90;;;;;;5013993;28;20211;-61
2022/01/04 06:24:17;;;;;;;3.03;1.10;;;13.30;99.90;;;;;;5013893;28;20261;-61
2022/01/04 06:26:44;;;;;;;2.00;1.70;;;13.40;99.90;;;;;;5013822;28;20238;-61
2022/01/04 06:29:11;;;;;;;1.93;1.50;;;13.40;99.90;;;;;;5014461;28;20229;-61
2022/01/04 06:31:39;;;;;;;2.33;1.20;;;13.40;99.90;;;;;;5013973;28;20211;-61
2022/01/04 06:34:06;;;;;;;1.70;1.07;;;13.30;99.90;;;;;;5013658;28;20592;-61
2022/01/04 06:36:34;;;;;;;1.77;1.43;;;13.30;99.90;;;;;;5013566;28;20227;-61
2022/01/04 06:39:01;;;;;;;2.23;1.43;;;13.40;99.90;;;;;;5013517;28;20285;-62
2022/01/04 06:41:27;;;;;;;1.87;1.03;;;13.30;99.90;;;;;;5013276;28;20207;-61
2022/01/04 06:43:54;;;;;;;4.17;1.50;;;13.30;99.90;;;;;;5013126;28;20211;-62
2022/01/04 06:46:21;;;;;;;3.10;2.00;;;13.40;99.90;;;;;;5013462;28;20230;-61
2022/01/04 06:48:47;;;;;;;3.80;1.60;;;13.40;99.90;;;;;;5013328;28;20229;-61
2022/01/04 06:51:14;;;;;;;3.03;1.60;;;13.40;99.90;;;;;;5013535;28;20206;-61
2022/01/04 06:53:42;;;;;;;1.90;1.20;;;13.40;99.90;;;;;;5013222;28;20218;-61
2022/01/04 06:56:09;;;;;;;2.30;1.23;;;13.40;99.90;;;;;;5013168;28;20230;-61
2022/01/04 06:58:36;;;;;;;2.50;1.50;;;13.50;99.90;;;;;;5013488;28;20634;-61
2022/01/04 07:01:03;;;;;;;2.77;1.70;;;13.40;99.90;;;;;;5013409;28;20211;-61
2022/01/04 07:03:30;;;;;;;4.23;2.00;;;13.40;99.90;;;;;;5013055;28;20202;-61
2022/01/04 07:05:57;;;;;;;2.43;1.70;;;13.30;99.90;;;;;;5013101;28;20230;-61
2022/01/04 07:08:24;;;;;;;2.57;1.40;;;13.30;99.90;;;;;;5013417;28;20223;-61
2022/01/04 07:10:52;;;;;;;2.00;1.20;;;13.20;99.90;;;;;;5013954;28;20218;-61
2022/01/04 07:13:19;;;;;;;3.80;1.90;;;13.20;99.90;;;;;;5014085;28;20691;-61
2022/01/04 07:15:46;;;;;;;1.50;0.90;;;13.20;99.90;;;;;;5013303;28;20242;-61
2022/01/04 07:18:13;;;;;;;1.37;1.27;;;13.20;99.90;;;;;;5013259;28;20289;-61
2022/01/04 07:20:40;;;;;;;1.37;1.10;;;13.30;99.90;;;;;;5012904;28;20211;-61
2022/01/04 07:23:06;;;;;;;2.20;1.00;;;13.30;99.90;;;;;;5012630;28;20236;-61
2022/01/04 07:25:33;;;;;;;1.77;1.00;;;13.30;99.90;;;;;;5013154;28;20227;-61
2022/01/04 07:28:01;;;;;;;1.53;0.87;;;13.30;99.90;;;;;;5013121;28;20230;-61
2022/01/04 07:30:28;;;;;;;1.73;1.00;;;13.30;99.90;;;;;;5013053;28;20215;-61
2022/01/04 07:32:55;;;;;;;1.40;1.10;;;13.40;99.90;;;;;;5012588;28;20697;-61
2022/01/04 07:35:23;;;;;;;1.83;1.00;;;13.30;99.90;;;;;;5012628;28;20206;-61
2022/01/04 07:37:49;;;;;;;1.57;1.00;;;13.30;99.90;;;;;;5012787;28;20211;-61
2022/01/04 07:40:17;;;;;;;2.37;1.03;;;13.20;99.90;;;;;;5012815;28;20269;-61
2022/01/04 07:42:44;;;;;;;2.17;1.13;;;13.20;99.90;;;;;;5012470;28;20211;-61
2022/01/04 07:45:12;;;;;;;3.50;2.37;;;13.20;99.90;;;;;;5012520;28;20217;-61
2022/01/04 07:47:41;;;;;;;1.53;1.20;;;13.20;99.90;;;;;;5012552;28;20226;-61
2022/01/04 07:50:08;;;;;;;1.67;1.10;;;13.20;99.90;;;;;;5012488;28;20203;-61
2022/01/04 07:52:35;;;;;;;3.10;1.60;;;13.20;99.90;;;;;;5012612;28;20211;-61
2022/01/04 07:55:03;;;;;;;2.00;1.10;;;13.30;99.90;;;;;;5012398;28;20211;-62
2022/01/04 07:57:29;;;;;;;1.73;0.80;;;13.40;99.90;;;;;;5012478;28;20256;-61
2022/01/04 07:59:56;;;;;;;1.03;0.80;;;13.50;99.90;;;;;;5012797;28;20211;-61
2022/01/04 08:02:24;;;;;;;1.97;0.50;;;13.50;99.90;;;;;;5012433;28;20217;-61
2022/01/04 08:04:51;;;;;;;0.93;0.70;;;13.50;99.90;;;;;;5012273;28;20734;-61
2022/01/04 08:07:17;;;;;;;1.43;0.93;;;13.60;99.90;;;;;;5012454;28;20640;-61
2022/01/04 08:09:44;;;;;;;1.67;1.13;;;13.60;99.90;;;;;;5012178;28;20622;-61
2022/01/04 08:12:11;;;;;;;12.10;6.87;;;13.70;99.90;;;;;;5012057;28;20215;-61
2022/01/04 08:14:38;;;;;;;5.60;3.90;;;13.80;99.90;;;;;;5012176;28;20214;-60
2022/01/04 08:17:05;;;;;;;1.13;0.90;;;13.80;99.90;;;;;;5011933;28;20231;-61
2022/01/04 08:19:33;;;;;;;1.53;1.00;;;13.90;99.90;;;;;;5016165;28;20293;-61
2022/01/04 08:21:59;;;;;;;2.70;0.90;;;13.90;99.90;;;;;;5016435;28;20207;-61
2022/01/04 08:24:26;;;;;;;1.47;0.97;;;14.00;99.90;;;;;;5016170;28;20207;-61
2022/01/04 08:26:53;;;;;;;2.77;0.80;;;14.00;99.90;;;;;;5015972;28;20226;-61
2022/01/04 08:29:19;;;;;;;1.33;1.13;;;14.10;99.90;;;;;;5016174;28;20207;-61
2022/01/04 08:31:46;;;;;;;4.40;0.80;;;14.00;99.90;;;;;;5015849;28;20215;-60
2022/01/04 08:34:13;;;;;;;1.30;0.90;;;14.00;99.90;;;;;;5015448;28;20233;-61
2022/01/04 08:36:41;;;;;;;0.90;0.60;;;14.00;99.90;;;;;;5015920;28;20234;-61
2022/01/04 08:39:09;;;;;;;2.23;1.00;;;14.00;99.90;;;;;;5016364;28;20698;-61
2022/01/04 08:41:36;;;;;;;0.90;0.80;;;14.10;99.90;;;;;;5016015;28;20687;-61
2022/01/04 08:44:03;;;;;;;1.30;0.80;;;14.20;99.90;;;;;;5015608;28;20682;-61
2022/01/04 08:46:30;;;;;;;1.23;0.90;;;14.20;99.90;;;;;;5015595;28;20227;-61
2022/01/04 08:48:57;;;;;;;3.77;1.13;;;14.30;99.90;;;;;;5015832;28;20226;-59
2022/01/04 08:51:23;;;;;;;1.20;1.00;;;14.40;99.90;;;;;;5015830;28;20253;-59
2022/01/04 08:53:51;;;;;;;1.43;0.80;;;14.40;99.90;;;;;;5015495;28;20203;-59
2022/01/04 08:56:19;;;;;;;1.53;0.90;;;14.50;99.90;;;;;;5015516;28;20223;-59
2022/01/04 08:58:46;;;;;;;1.67;1.30;;;14.50;99.90;;;;;;5015905;28;20211;-59
2022/01/04 09:01:12;;;;;;;1.77;0.80;;;14.50;99.90;;;;;;5016712;28;20244;-61
2022/01/04 09:03:39;;;;;;;3.40;0.90;;;14.60;99.90;;;;;;5016317;28;20265;-57
2022/01/04 09:06:07;;;;;;;1.50;0.93;;;14.60;99.90;;;;;;5016114;28;20231;-57
2022/01/04 09:08:36;;;;;;;1.00;0.90;;;14.50;99.90;;;;;;5015412;28;20580;-61
2022/01/04 09:11:04;;;;;;;2.83;1.67;;;14.60;99.90;;;;;;5015283;28;20211;-61
2022/01/04 09:13:36;;;;;;;2.63;0.80;;;14.60;99.90;;;;;;5014920;28;20253;-59
2022/01/04 09:18:59;;;;;;;2.03;0.80;;;14.70;99.90;;;;;;5014294;28;20557;-57
2022/01/04 09:21:28;;;;;;;3.10;1.93;;;14.70;99.90;;;;;;5015148;28;20651;-57
2022/01/04 09:23:56;;;;;;;2.13;1.27;;;14.70;99.90;;;;;;5014646;28;20302;-57
2022/01/04 09:26:26;;;;;;;1.60;0.90;;;14.80;99.90;;;;;;5015176;28;20229;-64
2022/01/04 09:28:53;;;;;;;1.03;0.70;;;14.80;99.90;;;;;;5014504;28;20711;-56
2022/01/04 09:31:22;;;;;;;1.10;0.90;;;14.80;99.90;;;;;;5014188;28;20563;-56
2022/01/04 09:33:49;;;;;;;1.43;0.70;;;14.80;99.90;;;;;;5014650;28;20283;-56
2022/01/04 09:36:16;;;;;;;2.33;0.67;;;14.80;99.90;;;;;;5014614;28;20231;-57
2022/01/04 09:38:43;;;;;;;1.23;0.60;;;14.70;99.90;;;;;;5014567;28;20253;-56
2022/01/04 09:41:09;;;;;;;1.90;1.27;;;14.70;99.90;;;;;;5014889;28;20237;-56
2022/01/04 09:43:37;;;;;;;1.13;0.90;;;14.70;99.90;;;;;;5014456;28;20215;-57
2022/01/04 09:46:04;;;;;;;1.43;0.73;;;14.70;99.90;;;;;;5014555;28;20285;-56
2022/01/04 09:48:31;;;;;;;2.10;1.07;;;14.70;99.90;;;;;;5014610;28;20223;-56
2022/01/04 09:50:58;;;;;;;1.20;0.90;;;14.70;99.90;;;;;;5014344;28;20207;-57
2022/01/04 09:53:26;;;;;;;1.60;0.90;;;14.70;99.90;;;;;;5014443;28;20634;-57
2022/01/04 09:55:55;;;;;;;1.40;0.77;;;14.70;99.90;;;;;;5014651;28;20265;-58
2022/01/04 09:58:24;;;;;;;1.67;0.77;;;14.60;99.90;;;;;;5014292;28;20217;-58
2022/01/04 10:00:52;;;;;;;2.60;0.80;;;14.60;99.90;;;;;;5014563;28;20238;-56
2022/01/04 10:03:21;;;;;;;2.17;1.00;;;14.60;99.90;;;;;;5014307;28;20210;-57
2022/01/04 10:05:49;;;;;;;0.70;0.70;;;14.50;99.90;;;;;;5014390;28;20227;-57
2022/01/04 10:08:16;;;;;;;1.50;0.90;;;14.50;99.90;;;;;;5014202;28;20254;-57
2022/01/04 10:10:43;;;;;;;1.00;0.70;;;14.50;99.90;;;;;;5014322;28;20207;-58
2022/01/04 10:13:12;;;;;;;2.33;1.20;;;14.50;99.90;;;;;;5013966;28;20257;-58
2022/01/04 10:15:42;;;;;;;1.83;1.00;;;14.60;99.90;;;;;;5013938;28;20246;-58
2022/01/04 10:18:23;;;;;;;1.33;1.00;;;14.60;99.90;;;;;;5013889;28;20199;-57
2022/01/04 10:20:53;;;;;;;1.23;0.90;;;14.60;99.90;;;;;;5014225;28;20583;-57
2022/01/04 10:23:22;;;;;;;1.77;0.97;;;14.70;99.90;;;;;;5014082;28;20301;-57
2022/01/04 10:25:49;;;;;;;2.40;1.00;;;14.70;99.90;;;;;;5014125;28;20237;-57
2022/01/04 10:28:29;;;;;;;4.27;0.90;;;14.80;99.90;;;;;;5013469;28;20233;-56
2022/01/04 10:31:00;;;;;;;4.57;1.20;;;14.80;99.90;;;;;;5013759;28;20211;-58
2022/01/04 10:33:31;;;;;;;4.43;2.03;;;14.70;99.90;;;;;;5013391;28;20203;-58
2022/01/04 10:36:00;;;;;;;2.23;1.40;;;14.80;99.90;;;;;;5013445;28;20288;-57
2022/01/04 10:38:28;;;;;;;1.93;0.90;;;14.70;99.90;;;;;;5013661;28;20198;-57
2022/01/04 10:40:59;;;;;;;2.20;0.93;;;14.70;99.90;;;;;;5012953;28;20207;-57
2022/01/04 10:43:28;;;;;;;2.87;1.10;;;14.60;99.90;;;;;;5013483;28;20293;-57
2022/01/04 10:45:56;;;;;;;2.63;0.90;;;14.60;99.90;;;;;;5013651;28;20226;-58
2022/01/04 10:48:24;;;;;;;2.10;1.00;;;14.60;99.90;;;;;;5013577;28;20301;-58
2022/01/04 10:50:54;;;;;;;3.20;1.07;;;14.80;99.90;;;;;;5013680;28;20206;-56
2022/01/04 10:53:27;;;;;;;1.80;1.10;;;14.80;99.90;;;;;;5013228;28;20211;-56
2022/01/04 10:56:00;;;;;;;2.30;1.20;;;14.90;99.90;;;;;;5013878;28;20231;-56
2022/01/04 10:58:35;;;;;;;2.73;1.10;;;14.80;99.90;;;;;;5013505;28;20218;-57
2022/01/04 11:01:05;;;;;;;2.20;1.07;;;14.90;99.90;;;;;;5013306;28;20631;-56
2022/01/04 11:03:33;;;;;;;1.73;0.93;;;14.80;99.90;;;;;;5013327;28;20210;-57
2022/01/04 11:06:05;;;;;;;5.30;3.00;;;14.90;99.90;;;;;;5013107;28;20231;-56
2022/01/04 11:08:32;;;;;;;1.50;1.10;;;14.90;99.90;;;;;;5013558;28;20231;-57
2022/01/04 11:11:00;;;;;;;2.37;1.30;;;14.80;99.90;;;;;;5013515;28;20211;-57
2022/01/04 11:13:27;;;;;;;2.77;1.10;;;14.80;99.90;;;;;;5013036;28;20206;-57
2022/01/04 11:15:53;;;;;;;1.63;1.20;;;14.80;99.90;;;;;;5013102;28;20639;-56
2022/01/04 11:18:21;;;;;;;5.43;2.30;;;14.70;99.90;;;;;;5013369;28;20207;-56
2022/01/04 11:20:49;;;;;;;2.37;1.20;;;14.80;99.90;;;;;;5013078;28;20213;-58
2022/01/04 11:23:22;;;;;;;1.40;0.97;;;14.90;99.90;;;;;;5012915;28;20207;-58
2022/01/04 11:25:50;;;;;;;2.23;1.13;;;15.00;99.90;;;;;;5013108;28;20302;-58
2022/01/04 11:28:17;;;;;;;3.37;1.40;;;15.00;99.90;;;;;;5012928;28;20234;-58
2022/01/04 11:31:02;;;;;;;4.17;1.33;;;15.00;99.90;;;;;;5013034;28;20214;-57
2022/01/04 11:33:31;;;;;;;2.58;1.40;;;15.00;99.90;;;;;;5008671;28;20439;-59
2022/01/04 11:35:58;;;;;;;4.80;2.20;;;15.00;99.90;;;;;;5004108;28;20277;-63
2022/01/04 11:38:34;;;;;;;2.60;1.40;;;15.00;99.90;;;;;;5013475;28;20916;-61
2022/01/04 11:41:01;;;;;;;3.77;1.30;;;15.10;99.90;;;;;;5013074;28;20211;-63
2022/01/04 11:43:32;;;;;;;2.80;1.10;;;15.00;99.90;;;;;;5012060;28;20206;-62
2022/01/04 11:45:59;;;;;;;3.17;1.20;;;15.00;99.90;;;;;;5012996;28;20226;-61
2022/01/04 11:48:31;;;;;;;1.57;1.33;;;15.00;99.90;;;;;;5012874;28;20223;-60
2022/01/04 11:51:00;;;;;;;2.77;1.50;;;15.00;99.90;;;;;;5012460;28;20675;-62
2022/01/04 11:53:26;;;;;;;2.00;1.63;;;15.00;99.90;;;;;;5012233;28;20207;-63
2022/01/04 11:55:57;;;;;;;2.27;1.13;;;15.00;99.90;;;;;;5012562;28;20230;-63
2022/01/04 11:58:27;;;;;;;1.80;1.10;;;14.90;99.90;;;;;;5013125;28;20229;-63
2022/01/04 12:01:00;;;;;;;1.27;1.17;;;14.80;99.90;;;;;;5012034;28;20628;-63
2022/01/04 12:03:40;;;;;;;2.73;1.50;;;14.80;99.90;;;;;;5011876;28;20209;-60
2022/01/04 12:06:08;;;;;;;1.67;1.20;;;14.80;99.90;;;;;;5012282;28;20234;-60
2022/01/04 12:08:36;;;;;;;3.87;1.47;;;14.90;99.90;;;;;;5012241;28;20237;-59
2022/01/04 12:11:21;;;;;;;4.13;1.73;;;14.90;99.90;;;;;;5013558;28;20221;-59
2022/01/04 12:13:50;;;;;;;2.30;1.37;;;15.00;99.90;;;;;;5012749;28;20261;-59
2022/01/04 12:16:31;;;;;;;3.87;1.37;;;14.90;99.90;;;;;;5035002;22;20638;-63
2022/01/04 12:18:58;;;;;;;3.67;1.30;;;14.90;99.90;;;;;;5011809;28;20203;-63
2022/01/04 12:21:28;;;;;;;3.07;1.43;;;14.90;99.90;;;;;;5012097;28;20211;-63
2022/01/04 12:23:56;;;;;;;2.33;1.17;;;14.90;99.90;;;;;;5011891;28;20639;-63
2022/01/04 12:26:27;;;;;;;4.83;1.60;;;14.90;99.90;;;;;;5011980;28;20270;-63
2022/01/04 12:29:22;;;;;;;2.47;1.50;;;14.90;99.90;;;;;;5012453;28;20226;-63
2022/01/04 12:31:51;;;;;;;2.03;1.27;;;14.70;99.90;;;;;;5012026;28;20593;-63
2022/01/04 12:34:39;;;;;;;2.23;1.30;;;14.90;99.90;;;;;;5011852;28;20211;-63
2022/01/04 12:37:09;;;;;;;2.67;1.40;;;14.90;99.90;;;;;;5011985;28;20223;-63
2022/01/04 12:39:41;;;;;;;3.73;1.57;;;14.80;99.90;;;;;;5011914;28;20217;-63
2022/01/04 12:42:11;;;;;;;2.27;1.50;;;14.80;99.90;;;;;;5012082;28;20211;-63
2022/01/04 12:44:39;;;;;;;4.63;1.87;;;14.70;99.90;;;;;;5011776;28;20207;-63
2022/01/04 12:47:08;;;;;;;3.90;1.47;;;14.70;99.90;;;;;;5011856;28;20235;-63
2022/01/04 12:49:36;;;;;;;6.50;1.40;;;14.70;99.90;;;;;;5011651;28;20223;-63
2022/01/04 12:52:05;;;;;;;2.23;1.50;;;14.60;99.90;;;;;;5011763;28;20210;-63
2022/01/04 12:54:34;;;;;;;5.00;1.50;;;14.50;99.90;;;;;;5011448;28;20215;-63
2022/01/04 12:57:03;;;;;;;2.83;1.50;;;14.50;99.90;;;;;;5011989;28;20231;-63
2022/01/04 12:59:37;;;;;;;6.53;1.90;;;14.50;99.90;;;;;;5011848;28;20207;-62